Terminal Aerodrome Forecast
Issued by NWS

Home | Current Version | Previous Version | Text Only | Print | Product List | Glossary On
Versions: 1 2 3 4 5 6 7 8 9 10 11 12 13 14 15
082
FTUS44 KTSA 230520
TAFMLC
TAF
KMLC 230520Z 2306/2406 09004KT P6SM SKC
     FM231600 28007KT P6SM SCT025 BKN035 PROB30 2318/2324 4SM -TSRA
      BR BKN025CB
     FM240000 02009KT P6SM VCTS BKN035CB PROB30 2400/2406 4SM -TSRA
      BR BKN025CB=

USA.gov is the U.S. government's official web portal to all federal, state and local government web resources and services.